Aérodrome :
LOGIN :

S'inscrire | Disclaimer

   EN    FR    IT 

 










Légende :    VFR   VFR Marginal   IFR   IFR Intensif   IFR Très Intensif
Visi : 
Plafond : 
>= 8 km
>= 3000ft
5 à 8 km
1000 à 3000 ft
1500m à 5 km
500 à 1000 ft
800 à 1500m
200 à 500 ft
< 800m
< 200 ft
Symboles :   Orages  Brouillard  Fortes neiges  Fortes précipitations  Vent > 20 kt
SIGMETs :   Divers  Orages  Givrage  Turbulence  Onde Orograph.  Cendres Volcan.







- Altitude de l'aérodrome : 52 ft
- Code IATA : IOM
- Voir les cartes d'approche


EGNS - Isle of Man

DERNIER METAR :
  • 200920Z 34007KT 9999 FEW015 SCT045 04/03 Q1017 NOSIG

METARs EXPIRÉS :
  • 200850Z 02003KT 9999 FEW015 SCT048 04/03 Q1017 NOSIG
  • 200820Z 33005KT 9999 FEW015 SCT032 04/03 Q1016 NOSIG
  • 200750Z 35003KT 9000 FEW015 BKN047 05/03 Q1016 NOSIG
  • 200720Z 02002KT 6000 FEW008 OVC048 04/03 Q1015 NOSIG
  • 200650Z VRB03KT 8000 FEW010 SCT037 BKN042 05/04 Q1015 NOSIG

TAF TAF EGNS
Valide du 20 à 09h jusqu'au 20 à 18h UTC


200800Z 2009/2018 VRB05KT 9000 STC008 BKN040
PROB30
TEMPO 2009/2013 5000 -RADZ BKN008
BECMG 2013/2015 33015KT 9999 SCT020
Pas de NOTAMs connus pour ce terrain.



MET'MAP, la Météo Aéronautique d'un coup d'oeil ! - Copyright ORBIFLY Décembre 2007 - Disclaimer

ORBIFLY MET'MAP TEAM :

Programmation & Développement : Alexandra Zaïnal
Conception & Développement : Baudouin d'Aumeries
Co-Programmation & Développement : Marc-Olivier Méhu
Soutien technique & logistique : Manuel Goepfert

Contact : metmap@orbifly.com




SOURCES & CREDITS :

   NOAA